SBGRSBJP

Guest
Details From SBGR - Sao Paulo - Guarulhos
To SBJP - Presidente Castro Pinto
Flight Number -
Tags decoded
Created
Modified
Stats Distance 1,182 nm / 2,190 km
Max Altitude 0 ft / 0 m
Waypoints 2
Social Downloads 0
Likes 0
Share VATSIM

Download

Looking for another format? Having issues loading an existing format? Contact us
Advertisement - Login to hide

Notes

Requested: SBGR SBJP

Route

SBGR SBJP

ID Type Via Altitude Latitude Longitude Leg Dist Tot Dist Heading (true) Name
O SBGR APT - 0 ft / 0 m -23.43233˚ -46.46968˚ - 0 nm - Sao Paulo - Guarulhos
O SBJP APT - 0 ft / 0 m -7.14838˚ -34.95068˚ 1182 nm 1182 nm 36° / 33° Presidente Castro Pinto

Altitude Profile

Advertisement - Login to hide

Weather


0- 5 10 15 20 25 30 35+ Temperature / ° C

Clouds and Precipitation
Forecast for 2017-12-11 06:00 UTC. Updated an hour ago

Ground ~20,000 ft ~40,000 ft Winds

SBGR

Details ICAO SBGR (GRU)
Name Sao Paulo - Guarulhos
Region Brazil
Timezone America/Sao_Paulo (UTC-2.0)
Stats Elevation 2,459 ft / 750 m (AMSL)
Location -23.432333° -46.469675°
Runways 2
Magnetic Variation 21.412° W

METAR

SBGR 110400Z 08002KT 9000 SCT008 18/18 Q1008

Decode

TAF

TAF SBGR 101938Z 1100/1206 08002KT CAVOK TX30/1115Z TN17/1205Z BECMG 1115/1117 17010KT BKN025 BECMG 1119/1121 BKN011 PROB30 1121/1201 4000 DZ OVC007 BECMG 1201/1203 15005KT RMK PGF

Decode

Departure Runways

ID Width Length Bearing (true) Bearing (mag) Surface Threshold Offset Overrun Length
09L 148 ft / 45 m 12,676 ft / 3,864 m 73.61° 95.02° Asphalt 495 ft / 151 m 0 ft / 0 m
09R 148 ft / 45 m 9,950 ft / 3,033 m 73.60° 95.01° Asphalt 0 ft / 0 m 197 ft / 60 m
27L 148 ft / 45 m 9,950 ft / 3,033 m 253.59° 275.00° Asphalt 0 ft / 0 m 197 ft / 60 m
27R 148 ft / 45 m 12,676 ft / 3,864 m 253.60° 275.01° Asphalt 197 ft / 60 m 0 ft / 0 m

SBJP

Details ICAO SBJP (JPA)
Name Presidente Castro Pinto
Region Brazil
Timezone America/Fortaleza (UTC-3.0)
Stats Elevation 215 ft / 66 m (AMSL)
Location -7.148382° -34.950680°
Runways 1
Magnetic Variation 21.767° W

METAR

SBJP 110400Z 35003KT 9999 FEW018 25/22 Q1011

Decode

TAF

TAF SBJP 102200Z 1100/1124 05006KT 9999 SCT020 TN24/1108Z TX31/1115Z BECMG 1110/1112 07012KT BKN025 BECMG 1115/1117 SCT030 BECMG 1120/1121 08007KT RMK PEU

Decode

Destination Runways

ID Width Length Bearing (true) Bearing (mag) Surface Threshold Offset Overrun Length
16 148 ft / 45 m 8,282 ft / 2,524 m 135.67° 157.44° Asphalt 0 ft / 0 m 0 ft / 0 m
34 148 ft / 45 m 8,282 ft / 2,524 m 315.67° 337.44° Asphalt 0 ft / 0 m 200 ft / 61 m

Popular Alternatives